LRTR/TSR METAR and TAF weather

Enter ICAO airport designator
Station Type Date Time Source
LRTR METAR 2021/07/30 06:30 UTC NOAA

LRTR 300630Z 10004KT 070V150 CAVOK 27/17 Q1012


Station Type Date Time Source
LRTR Decoded METAR 2021/07/30 06:30 UTC NOAA

Timisoara, Romania (LRTR) 45-46N 021-15E 88M
Jul 30, 2021 - 02:30 AM EDT / 2021.07.30 0630 UTC
Wind: from the E (100 degrees) at 5 MPH (4 KT) (direction variable):0
Visibility: greater than 7 mile(s):0
Temperature: 80 F (27 C)
Dew Point: 62 F (17 C)
Relative Humidity: 54%
Pressure (altimeter): 29.88 in. Hg (1012 hPa)
ob: LRTR 300630Z 10004KT 070V150 CAVOK 27/17 Q1012
cycle: 6

Station Type Date Time Source
LRTR TAF 2021/07/30 06:37 UTC NOAA

TAF LRTR 300500Z 3006/3106 VRB04KT CAVOK

Example: see airport list